Christy S — WDE5537 — position and weather

sailwx.info

Track history (hours):
 
Tides and Currents Weather Stations Pressure Air Temp Water Temp Dewpoint Dewpoint Depression Visibility Wind Speed Wind Dir Waves Ship Positions

Christy S

Owner: AMERICAN WORKBOATS, TERMINAL ISLAND, CA. More information available from US FCC via Universal Licensing System and Coast Guard Vessel Documentation Center.

Last reported at 2018-May-25 21:57 UTC. Time now 2018-May-26 13:36 UTC.
Position N 33°44' W 118°16'.

Length 19 m; draft 6.6 m.

Type: Passenger vessel. MMSI: 367368180.

Date/timePositionNaut miles runAvg speedWind from/ knotsBaromVisibWave heightAir tempDewpointWater temp
2018-May-25 21:57N 33°44' W 118°16'0 0.2
2018-May-25 21:30N 33°44' W 118°16'0 0.9
2018-May-25 21:00N 33°44' W 118°16'2 0.4
2018-May-25 16:24N 33°42' W 118°16'2 0.1
2018-May-24 21:36N 33°44' W 118°16'0 0.0
2018-May-24 21:30N 33°44' W 118°16'0 0.6
2018-May-24 20:58N 33°44' W 118°16'0 0.1
2018-May-24 20:30N 33°44' W 118°16'3 0.9
2018-May-24 16:57N 33°41' W 118°17'3 7.2
2018-May-24 16:30N 33°44' W 118°16'0 0.0
2018-May-24 07:18N 33°44' W 118°16'3 8.5
2018-May-24 06:55N 33°44' W 118°12'2 2.6
2018-May-24 06:15N 33°45' W 118°12'4 7.9
2018-May-24 05:45N 33°44' W 118°16'0 0.0
2018-May-24 01:11N 33°44' W 118°16'1 6.8
2018-May-24 01:00N 33°43' W 118°15'4 8.1
2018-May-24 00:30N 33°46' W 118°12'3 5.0
2018-May-23 23:58N 33°43' W 118°13'2 0.5
2018-May-23 19:31N 33°44' W 118°16'0 6.0
2018-May-23 19:30N 33°44' W 118°16'510.1
2018-May-23 19:00N 33°44' W 118°10'510.0
2018-May-23 18:30N 33°43' W 118°16'1 0.1
2018-May-23 13:22N 33°44' W 118°16'0 0.2
2018-May-23 12:59N 33°44' W 118°16'0 0.1
2018-May-23 11:20N 33°44' W 118°16'  
2018-May-19 23:20N 33°44' W 118°16'3 9.3
2018-May-19 23:00N 33°43' W 118°12'5 7.7
2018-May-19 22:23N 33°41' W 118°07'615.4
2018-May-19 22:00N 33°42' W 118°14'3 5.3
2018-May-19 21:30N 33°44' W 118°16'0 0.0
2018-May-18 20:25N 33°44' W 118°16'2 4.5
2018-May-18 20:00N 33°43' W 118°14'3 1.8
2018-May-18 18:29N 33°42' W 118°11'  
2018-May-16 02:59N 33°44' W 118°16'9 6.5
2018-May-16 01:40N 33°39' W 118°07'410.6
2018-May-16 01:20N 33°41' W 118°11'  
Track history (hours):
 
Tides and Currents Weather Stations Pressure Air Temp Water Temp Dewpoint Dewpoint Depression Visibility Wind Speed Wind Dir Waves Ship Positions

Christy S

Owner: AMERICAN WORKBOATS, TERMINAL ISLAND, CA. More information available from US FCC via Universal Licensing System and Coast Guard Vessel Documentation Center.

Last reported at 2018-May-25 21:57 UTC. Time now 2018-May-26 13:36 UTC.
Position N 33°44' W 118°16'.

Length 19 m; draft 6.6 m.

Type: Passenger vessel. MMSI: 367368180.

Date/timePositionNaut miles runAvg speedWind from/ knotsBaromVisibWave heightAir tempDewpointWater temp
2018-May-25 21:57N 33°44' W 118°16'0 0.2
2018-May-25 21:30N 33°44' W 118°16'0 0.9
2018-May-25 21:00N 33°44' W 118°16'2 0.4
2018-May-25 16:24N 33°42' W 118°16'2 0.1
2018-May-24 21:36N 33°44' W 118°16'0 0.0
2018-May-24 21:30N 33°44' W 118°16'0 0.6
2018-May-24 20:58N 33°44' W 118°16'0 0.1
2018-May-24 20:30N 33°44' W 118°16'3 0.9
2018-May-24 16:57N 33°41' W 118°17'3 7.2
2018-May-24 16:30N 33°44' W 118°16'0 0.0
2018-May-24 07:18N 33°44' W 118°16'3 8.5
2018-May-24 06:55N 33°44' W 118°12'2 2.6
2018-May-24 06:15N 33°45' W 118°12'4 7.9
2018-May-24 05:45N 33°44' W 118°16'0 0.0
2018-May-24 01:11N 33°44' W 118°16'1 6.8
2018-May-24 01:00N 33°43' W 118°15'4 8.1
2018-May-24 00:30N 33°46' W 118°12'3 5.0
2018-May-23 23:58N 33°43' W 118°13'2 0.5
2018-May-23 19:31N 33°44' W 118°16'0 6.0
2018-May-23 19:30N 33°44' W 118°16'510.1
2018-May-23 19:00N 33°44' W 118°10'510.0
2018-May-23 18:30N 33°43' W 118°16'1 0.1
2018-May-23 13:22N 33°44' W 118°16'0 0.2
2018-May-23 12:59N 33°44' W 118°16'0 0.1
2018-May-23 11:20N 33°44' W 118°16'  
2018-May-19 23:20N 33°44' W 118°16'3 9.3
2018-May-19 23:00N 33°43' W 118°12'5 7.7
2018-May-19 22:23N 33°41' W 118°07'615.4
2018-May-19 22:00N 33°42' W 118°14'3 5.3
2018-May-19 21:30N 33°44' W 118°16'0 0.0
2018-May-18 20:25N 33°44' W 118°16'2 4.5
2018-May-18 20:00N 33°43' W 118°14'3 1.8
2018-May-18 18:29N 33°42' W 118°11'  
2018-May-16 02:59N 33°44' W 118°16'9 6.5
2018-May-16 01:40N 33°39' W 118°07'410.6
2018-May-16 01:20N 33°41' W 118°11'  

Dump ship's entire track history